Terminal Aerodrome Forecast
Issued by NWS Bismarck, ND

Home | Current Version | Previous Version | Text Only | Print | Product List | Glossary On
Versions: 1 2 3 4 5 6 7 8 9 10 11 12 13 14
000
FTUS43 KBIS 010606 AAA
TAFBIS
TAF AMD
KBIS 010606Z 0106/0206 06005KT P6SM SCT100
      TEMPO 0106/0109 -SHRA BKN100
     FM011300 13006KT P6SM SKC
     FM011700 22008KT P6SM SKC
     FM011900 30012KT P6SM SKC
     FM020200 19007KT P6SM SKC=

USA.gov is the U.S. government's official web portal to all federal, state and local government web resources and services.